Time;durP1;ratioP1;P1;durP2;ratioP2;P2;SDS_P1;SDS_P2;PMS_P1;PMS_P2;Temp;Humidity;BMP_temperature;BMP_pressure;BME280_temperature;BME280_humidity;BME280_pressure;Samples;Min_cycle;Max_cycle;Signal;HPM_P1;HPM_P2
2023/09/25 00:00:54;;;;;;;0.93;0.73;;;;;;;21.32;49.29;94222.56;5940398;24;20024;-91
2023/09/25 00:03:20;;;;;;;0.70;0.70;;;;;;;21.31;48.96;94221.81;5939250;24;20024;-91
2023/09/25 00:05:46;;;;;;;2.25;1.23;;;;;;;21.34;48.82;94214.56;5917561;24;20560;-91
2023/09/25 00:08:12;;;;;;;1.92;1.40;;;;;;;21.32;49.09;94217.06;5940038;24;20032;-91
2023/09/25 00:10:40;;;;;;;1.92;1.13;;;;;;;21.32;48.71;94228.81;5885751;24;20028;-92
2023/09/25 00:13:06;;;;;;;1.08;0.90;;;;;;;21.34;49.02;94222.81;5941342;24;20029;-93
2023/09/25 00:15:34;;;;;;;3.63;1.25;;;;;;;21.31;49.22;94224.56;5939140;24;20017;-91
2023/09/25 00:18:00;;;;;;;1.15;0.88;;;;;;;21.30;49.14;94230.59;5942343;24;20032;-91
2023/09/25 00:20:31;;;;;;;1.52;1.08;;;;;;;21.31;49.11;94221.06;5963083;24;20020;-92
2023/09/25 00:22:56;;;;;;;1.55;1.17;;;;;;;21.32;49.05;94217.06;5956797;24;20020;-92
2023/09/25 00:25:28;;;;;;;1.50;1.13;;;;;;;21.31;49.03;94223.81;6041345;23;20023;-91
2023/09/25 00:27:56;;;;;;;1.42;1.08;;;;;;;21.29;49.08;94229.84;6060643;23;20018;-91
2023/09/25 00:30:23;;;;;;;1.73;1.17;;;;;;;21.28;49.34;94225.59;6104526;23;20054;-92
2023/09/25 00:32:59;;;;;;;1.92;1.40;;;;;;;21.27;49.16;94226.84;6081338;23;20029;-91
2023/09/25 00:35:24;;;;;;;1.48;1.10;;;;;;;21.28;49.23;94214.59;6103515;23;20011;-91
2023/09/25 00:37:51;;;;;;;1.63;1.10;;;;;;;21.29;49.02;94229.09;6080510;23;20033;-91
2023/09/25 00:40:24;;;;;;;1.98;1.50;;;;;;;21.29;49.11;94220.84;6095525;23;20034;-91
2023/09/25 00:42:55;;;;;;;1.45;1.10;;;;;;;21.31;48.86;94221.81;6086487;23;20022;-91
2023/09/25 00:45:24;;;;;;;1.92;1.25;;;;;;;21.29;48.96;94227.09;6060447;23;20033;-91
2023/09/25 00:47:52;;;;;;;1.85;1.20;;;;;;;21.30;49.04;94227.84;6106979;23;20470;-92
2023/09/25 00:50:29;;;;;;;1.92;1.40;;;;;;;21.30;49.03;94223.06;6083162;23;20018;-91
2023/09/25 00:52:56;;;;;;;1.63;1.20;;;;;;;21.27;49.08;94232.34;6083808;23;20034;-92
2023/09/25 00:55:23;;;;;;;1.10;1.00;;;;;;;21.29;49.09;94234.59;6080154;23;20014;-92
2023/09/25 00:57:51;;;;;;;1.38;1.10;;;;;;;21.32;48.65;94223.31;6081060;23;20043;-91
2023/09/25 01:00:18;;;;;;;1.90;1.00;;;;;;;21.29;49.19;94231.84;6076836;23;20038;-91
2023/09/25 01:02:47;;;;;;;1.38;0.98;;;;;;;21.28;49.08;94233.09;6082772;23;20284;-91
2023/09/25 01:05:16;;;;;;;1.52;0.95;;;;;;;21.27;49.16;94235.09;6052752;23;20018;-92
2023/09/25 01:07:45;;;;;;;1.70;1.10;;;;;;;21.27;48.91;94218.59;6072332;23;20093;-90
2023/09/25 01:10:23;;;;;;;2.42;1.30;;;;;;;21.27;49.01;94215.09;6060788;23;20033;-91
2023/09/25 01:13:10;;;;;;;2.08;1.33;;;;;;;21.27;49.16;94215.09;6060035;23;20028;-93
2023/09/25 01:15:38;;;;;;;2.05;1.15;;;;;;;21.26;48.97;94221.84;6081193;23;20172;-91
2023/09/25 01:18:04;;;;;;;1.60;1.00;;;;;;;21.32;48.49;94219.81;6064282;23;20018;-91
2023/09/25 01:20:29;;;;;;;1.10;0.90;;;;;;;21.30;48.95;94217.56;6081984;23;20327;-91
2023/09/25 01:22:55;;;;;;;1.33;1.02;;;;;;;21.29;48.61;94213.34;6060811;23;20022;-91
2023/09/25 01:25:23;;;;;;;1.40;1.10;;;;;;;21.27;48.97;94213.09;6025596;23;20033;-92
2023/09/25 01:27:49;;;;;;;1.60;1.30;;;;;;;21.28;49.02;94213.84;6029400;23;20027;-91
2023/09/25 01:30:17;;;;;;;2.13;1.27;;;;;;;21.26;49.06;94203.34;6027770;23;20027;-91
2023/09/25 01:32:44;;;;;;;1.55;0.93;;;;;;;21.25;48.94;94192.84;5969594;23;20031;-93
2023/09/25 01:35:19;;;;;;;1.55;0.95;;;;;;;21.23;49.08;94200.88;5973035;23;20020;-92
2023/09/25 01:37:48;;;;;;;1.30;1.20;;;;;;;21.24;48.90;94197.59;5970030;23;20377;-92
2023/09/25 01:40:17;;;;;;;1.50;1.00;;;;;;;21.23;49.05;94192.63;5958996;24;20117;-92
2023/09/25 01:42:44;;;;;;;1.58;1.15;;;;;;;21.28;48.61;94192.59;5937039;24;20048;-91
2023/09/25 01:45:19;;;;;;;1.90;1.23;;;;;;;21.27;48.77;94191.09;5891627;24;20029;-90
2023/09/25 01:47:53;;;;;;;1.77;1.27;;;;;;;21.28;48.71;94192.59;5880606;24;20065;-91
2023/09/25 01:50:30;;;;;;;1.23;1.00;;;;;;;21.28;48.55;94183.59;5938298;24;20024;-93
2023/09/25 01:52:58;;;;;;;3.15;1.02;;;;;;;21.28;48.83;94195.34;5915260;24;20036;-92
2023/09/25 01:55:26;;;;;;;1.50;1.00;;;;;;;21.31;48.60;94182.56;5906356;24;20028;-92
2023/09/25 01:57:52;;;;;;;2.25;1.40;;;;;;;21.32;48.55;94184.81;5937638;24;20016;-91
2023/09/25 02:00:18;;;;;;;1.30;1.20;;;;;;;21.28;48.64;94175.34;5942395;24;20036;-91
2023/09/25 02:02:57;;;;;;;1.10;1.00;;;;;;;21.26;48.85;94178.59;5927038;23;20092;-91
2023/09/25 02:05:23;;;;;;;1.77;1.15;;;;;;;21.29;48.52;94174.09;6023419;23;20031;-92
2023/09/25 02:07:57;;;;;;;1.48;1.10;;;;;;;21.26;48.94;94167.59;6025471;23;20523;-91
2023/09/25 02:10:23;;;;;;;1.35;1.20;;;;;;;21.27;48.79;94160.09;6025885;23;20030;-91
2023/09/25 02:12:48;;;;;;;1.88;1.10;;;;;;;21.26;48.70;94164.84;6089088;23;20022;-91
2023/09/25 02:15:14;;;;;;;1.58;1.20;;;;;;;21.26;49.10;94164.84;6060061;23;20036;-91
2023/09/25 02:17:40;;;;;;;2.22;1.40;;;;;;;21.26;48.83;94166.84;6087288;23;20026;-91
2023/09/25 02:20:19;;;;;;;1.70;1.08;;;;;;;21.27;48.69;94171.09;6084754;23;20010;-91
2023/09/25 02:22:47;;;;;;;1.10;1.00;;;;;;;21.27;48.71;94166.34;6002041;23;20019;-90
2023/09/25 02:25:14;;;;;;;1.63;0.98;;;;;;;21.26;48.69;94159.34;5994742;23;20310;-91
2023/09/25 02:27:40;;;;;;;3.13;1.67;;;;;;;21.26;48.87;94153.84;5995379;23;20024;-91
2023/09/25 02:30:09;;;;;;;1.50;1.00;;;;;;;21.26;48.81;94148.34;5994410;23;20131;-91
2023/09/25 02:32:43;;;;;;;2.05;1.05;;;;;;;21.23;48.74;94149.38;5917395;23;20027;-91
2023/09/25 02:35:09;;;;;;;1.60;1.20;;;;;;;21.27;48.78;94152.59;5995624;23;20035;-91
2023/09/25 02:37:44;;;;;;;1.33;1.17;;;;;;;21.26;48.64;94150.34;5948384;23;20065;-91
2023/09/25 02:40:13;;;;;;;1.05;0.88;;;;;;;21.23;48.80;94143.13;5966815;24;20000;-91
2023/09/25 02:42:40;;;;;;;1.70;1.20;;;;;;;21.24;49.15;94153.63;5968926;24;20032;-93
2023/09/25 02:45:16;;;;;;;1.60;1.25;;;;;;;21.25;48.69;94146.09;5945988;24;20029;-92
2023/09/25 02:47:42;;;;;;;1.33;1.13;;;;;;;21.27;48.65;94146.34;5946938;24;20024;-92
2023/09/25 02:50:08;;;;;;;1.60;1.30;;;;;;;21.26;48.60;94145.59;5943961;24;20051;-91
2023/09/25 02:52:36;;;;;;;2.13;1.05;;;;;;;21.25;48.80;94151.59;5925814;23;20020;-91
2023/09/25 02:55:03;;;;;;;1.45;1.08;;;;;;;21.24;48.77;94144.63;5998328;23;20028;-92
2023/09/25 02:57:29;;;;;;;1.55;1.10;;;;;;;21.24;48.98;94150.88;6052782;23;20088;-91
2023/09/25 02:59:57;;;;;;;1.63;1.02;;;;;;;21.25;48.65;94148.84;6027055;23;20027;-91
2023/09/25 03:02:26;;;;;;;1.48;1.10;;;;;;;21.24;48.79;94144.63;6049647;23;20155;-93
2023/09/25 03:04:51;;;;;;;1.60;1.02;;;;;;;21.21;48.93;94146.41;6022516;23;20047;-91
2023/09/25 03:07:26;;;;;;;1.27;1.10;;;;;;;21.22;48.64;94147.88;5944228;24;20426;-92
2023/09/25 03:09:51;;;;;;;1.05;0.85;;;;;;;21.21;48.86;94143.66;5919380;24;20034;-92
2023/09/25 03:12:26;;;;;;;1.48;1.02;;;;;;;21.20;48.87;94137.41;5934026;23;20027;-91
2023/09/25 03:14:53;;;;;;;2.05;1.10;;;;;;;21.26;48.90;94155.84;5973750;23;20043;-91
2023/09/25 03:17:18;;;;;;;1.77;1.27;;;;;;;21.20;49.00;94144.91;5992547;23;20037;-91
2023/09/25 03:19:44;;;;;;;1.40;1.17;;;;;;;21.23;48.67;94149.38;5949175;23;20028;-91
2023/09/25 03:22:10;;;;;;;2.45;1.20;;;;;;;;;;5956075;23;20023;-91
2023/09/25 03:24:35;;;;;;;1.60;1.10;;;;;;;21.26;48.64;94147.59;5971175;23;20056;-92
2023/09/25 03:27:02;;;;;;;1.77;1.05;;;;;;;21.26;48.57;94142.84;5971567;23;20031;-93
2023/09/25 03:29:27;;;;;;;2.10;1.20;;;;;;;21.28;48.80;94136.84;5899652;24;20040;-91
2023/09/25 03:31:59;;;;;;;2.85;1.15;;;;;;;21.27;48.96;94136.09;5951162;23;20032;-89
2023/09/25 03:34:24;;;;;;;3.78;1.10;;;;;;;21.35;48.92;94139.78;6117975;23;20589;-90
2023/09/25 03:36:51;;;;;;;7.55;6.75;;;;;;;21.33;48.61;94141.56;6090054;23;20029;-91
2023/09/25 03:39:17;;;;;;;25.50;18.25;;;;;;;21.36;48.41;94141.28;6109547;23;20022;-91
2023/09/25 03:41:43;;;;;;;40.20;24.38;;;;;;;21.40;48.89;94138.25;6087034;23;20048;-88
2023/09/25 03:44:15;;;;;;;6.18;4.72;;;;;;;21.42;48.69;94127.50;6053213;23;20144;-90
2023/09/25 03:46:40;;;;;;;17.50;10.07;;;;;;;21.42;48.40;94133.75;6096958;23;20104;-92
2023/09/25 03:49:10;;;;;;;12.52;6.40;;;;;;;21.38;48.53;94135.28;6056558;23;20094;-91
2023/09/25 03:52:20;;;;;;;8.20;4.47;;;;;;;21.40;48.48;94124.50;6106968;23;20123;-92
2023/09/25 03:54:27;;;;;;;62.60;13.30;;;;;;;21.34;47.46;94132.06;6052848;23;20476;-92
2023/09/25 03:56:53;;;;;;;57.78;11.52;;;;;;;21.20;45.90;94125.66;6040937;23;20101;-90
2023/09/25 03:59:44;;;;;;;44.20;16.95;;;;;;;21.03;44.98;94123.00;6019358;23;20029;-91
2023/09/25 04:02:17;;;;;;;116.88;39.75;;;;;;;20.93;44.57;94124.59;6045220;23;20083;-93
2023/09/25 04:05:40;;;;;;;71.20;22.15;;;;;;;20.82;44.25;94130.13;6025968;23;20019;-92
2023/09/25 04:08:11;;;;;;;535.20;384.15;;;;;;;20.69;44.15;94130.72;6028168;23;20015;-94
2023/09/25 04:10:43;;;;;;;72.18;32.35;;;;;;;20.58;43.85;94122.53;5984780;23;20048;-95
2023/09/25 04:13:09;;;;;;;47.47;21.92;;;;;;;20.57;43.64;94120.31;5970253;23;20016;-92
2023/09/25 04:15:35;;;;;;;77.35;21.05;;;;;;;20.53;43.75;94120.59;6058483;23;20022;-94
2023/09/25 04:18:01;;;;;;;61.95;16.35;;;;;;;20.53;43.50;94123.31;6057527;23;20117;-94
2023/09/25 04:20:36;;;;;;;57.58;18.83;;;;;;;20.47;43.68;94131.59;6065059;23;20023;-93
2023/09/25 04:23:01;;;;;;;42.67;13.65;;;;;;;20.48;43.49;94124.84;6020824;23;20016;-91
2023/09/25 04:25:32;;;;;;;36.40;12.10;;;;;;;20.40;43.74;94134.84;5987456;23;20030;-93
2023/09/25 04:27:57;;;;;;;;;;;;;;;20.38;44.02;94134.63;6007920;23;20027;-91
2023/09/25 04:30:58;;;;;;;;;;;;;;;;;;;;;
2023/09/25 04:33:32;;;;;;;35.60;13.88;;;;;;;20.27;43.88;94128.41;6003048;23;20043;-93
2023/09/25 04:36:57;;;;;;;;;;;;;;;;;;;;;
2023/09/25 04:39:23;;;;;;;43.47;17.75;;;;;;;20.27;44.15;94133.91;5820206;24;20034;-94
2023/09/25 04:42:27;;;;;;;36.17;18.33;;;;;;;20.17;44.28;94125.94;5770921;24;20022;-94
2023/09/25 04:45:02;;;;;;;24.23;13.15;;;;;;;20.19;44.29;94128.94;5871724;24;20037;-93
2023/09/25 04:47:27;;;;;;;41.15;15.40;;;;;;;20.09;44.79;94119.50;5881088;24;20085;-94
2023/09/25 04:50:14;;;;;;;42.95;16.88;;;;;;;20.16;44.60;94118.22;5894840;24;20016;-95
2023/09/25 04:52:44;;;;;;;78.03;25.58;;;;;;;20.24;44.43;94132.16;5930026;24;20123;-94
2023/09/25 04:55:19;;;;;;;81.47;27.23;;;;;;;20.30;44.32;94128.16;5915785;24;20020;-91
2023/09/25 04:57:53;;;;;;;61.03;23.38;;;;;;;20.36;44.38;94130.84;5900215;24;20361;-93
2023/09/25 05:00:24;;;;;;;52.25;24.65;;;;;;;20.39;44.47;94138.84;5885751;24;20029;-92
2023/09/25 05:02:50;;;;;;;60.45;27.35;;;;;;;20.40;44.30;94136.84;5926173;24;20069;-92
2023/09/25 05:05:17;;;;;;;70.95;32.65;;;;;;;20.48;44.25;94127.59;5850463;24;20026;-91
2023/09/25 05:07:46;;;;;;;66.63;34.08;;;;;;;20.53;44.32;94129.56;5854948;24;20334;-92
2023/09/25 05:10:14;;;;;;;85.20;34.08;;;;;;;20.57;44.69;94134.06;5906555;23;20022;-92
2023/09/25 05:12:41;;;;;;;84.00;38.90;;;;;;;20.60;44.68;94127.53;6102544;23;20050;-92
2023/09/25 05:15:08;;;;;;;101.38;49.28;;;;;;;20.68;44.41;94134.72;6060022;23;20027;-93
2023/09/25 05:17:36;;;;;;;130.57;57.67;;;;;;;20.74;45.01;94140.94;6044868;23;20038;-92
2023/09/25 05:20:19;;;;;;;122.38;68.95;;;;;;;20.81;44.89;94132.13;6037008;23;20027;-91
2023/09/25 05:23:21;;;;;;;140.32;82.18;;;;;;;20.84;44.83;94133.13;6037153;23;20063;-93
2023/09/25 05:25:47;;;;;;;144.85;83.45;;;;;;;20.81;44.91;94139.63;6017597;23;20028;-91
2023/09/25 05:28:13;;;;;;;150.57;80.43;;;;;;;20.83;44.78;94142.63;5954775;23;20027;-93
2023/09/25 05:36:48;;;;;;;189.75;104.63;;;;;;;20.85;45.20;94137.38;6028139;23;20031;-92
2023/09/25 05:39:15;;;;;;;181.27;104.22;;;;;;;20.86;45.26;94136.13;5992606;23;20015;-93
2023/09/25 05:41:40;;;;;;;197.82;110.45;;;;;;;20.85;45.48;94135.38;5984203;23;20019;-92
2023/09/25 05:44:10;;;;;;;195.02;110.60;;;;;;;20.85;45.52;94132.63;6006770;23;20019;-93
2023/09/25 05:46:35;;;;;;;193.68;107.80;;;;;;;20.93;45.23;94134.81;6009379;23;20552;-92
2023/09/25 05:49:25;;;;;;;182.27;105.22;;;;;;;20.89;45.54;94140.59;5984897;23;20019;-92
2023/09/25 05:51:54;;;;;;;220.68;125.32;;;;;;;20.92;45.54;94136.09;6031802;23;20076;-92
2023/09/25 05:54:21;;;;;;;208.15;109.13;;;;;;;20.94;45.41;94137.06;6014380;23;20039;-94
2023/09/25 05:56:55;;;;;;;221.25;126.68;;;;;;;20.99;45.29;94139.03;5994469;23;20051;-93
2023/09/25 05:59:22;;;;;;;228.35;119.57;;;;;;;21.03;45.80;94141.50;5941903;23;20017;-93
2023/09/25 06:02:03;;;;;;;201.70;113.32;;;;;;;21.05;45.48;94144.47;5981615;23;20020;-91
2023/09/25 06:04:30;;;;;;;221.50;126.78;;;;;;;21.04;45.54;94140.97;6103109;23;20033;-93
2023/09/25 06:06:56;;;;;;;220.38;121.18;;;;;;;21.06;45.37;94145.97;6052734;23;20027;-93
2023/09/25 06:09:27;;;;;;;313.52;206.85;;;;;;;21.04;45.42;94159.47;6022013;23;20101;-95
2023/09/25 06:11:52;;;;;;;240.40;125.72;;;;;;;21.05;45.64;94153.47;5998749;23;20015;-93
2023/09/25 06:14:18;;;;;;;203.85;113.60;;;;;;;21.04;45.49;94154.72;6044482;23;20029;-93
2023/09/25 06:16:50;;;;;;;204.30;112.95;;;;;;;21.04;45.57;94165.72;6093198;23;20049;-93
2023/09/25 06:19:22;;;;;;;211.85;117.55;;;;;;;21.07;45.51;94161.22;6032649;23;20351;-93
2023/09/25 06:21:48;;;;;;;192.77;111.63;;;;;;;21.07;45.69;94155.72;6044252;23;20065;-93
2023/09/25 06:24:25;;;;;;;181.05;108.05;;;;;;;21.07;45.54;94156.47;6080535;23;20043;-92
2023/09/25 06:26:53;;;;;;;184.38;104.28;;;;;;;21.07;45.43;94156.47;6088492;23;20018;-92
2023/09/25 06:29:24;;;;;;;181.82;101.85;;;;;;;21.06;45.59;94160.47;6063149;23;20030;-92
2023/09/25 06:31:50;;;;;;;162.90;94.93;;;;;;;21.07;45.62;94150.22;6062284;23;20032;-92
2023/09/25 06:34:25;;;;;;;171.93;101.93;;;;;;;21.10;45.71;94152.69;6024279;23;20077;-93
2023/09/25 06:36:56;;;;;;;183.43;100.97;;;;;;;21.07;45.63;94164.72;6044184;23;20042;-93
2023/09/25 06:39:26;;;;;;;183.55;102.55;;;;;;;21.08;45.82;94160.69;6067932;23;20023;-92
2023/09/25 06:41:52;;;;;;;202.65;107.85;;;;;;;21.11;45.69;94145.19;5994872;23;20579;-93
2023/09/25 06:44:17;;;;;;;190.70;108.78;;;;;;;21.08;45.65;94149.72;5992446;23;20020;-91
2023/09/25 06:46:43;;;;;;;205.57;119.00;;;;;;;21.11;45.68;94148.69;5985134;23;20027;-92
2023/09/25 06:49:08;;;;;;;206.68;116.05;;;;;;;21.14;45.72;94163.41;5982979;23;20095;-93
2023/09/25 06:51:34;;;;;;;202.73;120.03;;;;;;;21.17;45.64;94159.66;5983501;23;20023;-94
2023/09/25 06:53:59;;;;;;;217.60;121.60;;;;;;;21.15;45.77;94160.16;5960278;23;20019;-92
2023/09/25 06:56:25;;;;;;;212.10;119.32;;;;;;;21.14;45.87;94168.91;5979372;23;20030;-93
2023/09/25 06:58:53;;;;;;;207.05;115.82;;;;;;;21.20;45.80;94161.41;5982566;23;20027;-92
2023/09/25 07:01:19;;;;;;;200.10;114.07;;;;;;;21.22;45.68;94167.13;5981186;23;20150;-92
2023/09/25 07:03:47;;;;;;;208.68;121.28;;;;;;;21.17;45.78;94165.91;5990276;23;20047;-94
2023/09/25 07:06:24;;;;;;;215.30;120.25;;;;;;;21.20;45.84;94169.66;5979969;23;20024;-93
2023/09/25 07:08:51;;;;;;;212.63;116.63;;;;;;;21.21;45.58;94162.91;5966049;23;20028;-93
2023/09/25 07:11:19;;;;;;;195.05;113.93;;;;;;;21.22;45.79;94166.41;5985127;23;20086;-94
2023/09/25 07:13:45;;;;;;;211.25;116.35;;;;;;;21.24;45.67;94163.88;5952231;23;20055;-93
2023/09/25 07:16:11;;;;;;;189.88;110.28;;;;;;;21.26;45.66;94159.34;6002682;23;20016;-94
2023/09/25 07:18:37;;;;;;;186.98;108.18;;;;;;;21.26;45.85;94159.34;5988997;23;20482;-92
2023/09/25 07:21:03;;;;;;;203.35;111.18;;;;;;;21.28;45.70;94156.84;5953368;24;20028;-93
2023/09/25 07:23:29;;;;;;;186.82;106.55;;;;;;;21.28;45.72;94164.34;5954910;24;20031;-93
2023/09/25 07:26:08;;;;;;;171.40;102.97;;;;;;;21.28;45.92;94159.59;5960452;24;20040;-92
2023/09/25 07:28:35;;;;;;;236.52;111.55;;;;;;;21.39;45.70;94158.78;5967610;23;20444;-92
2023/09/25 07:31:01;;;;;;;380.67;130.10;;;;;;;21.35;45.66;94155.53;5988172;23;20031;-93
2023/09/25 07:33:27;;;;;;;331.52;126.22;;;;;;;21.31;45.72;94161.31;5987971;23;20039;-94
2023/09/25 07:35:53;;;;;;;214.90;99.53;;;;;;;21.33;45.81;94161.56;5985861;23;20020;-92
2023/09/25 07:38:20;;;;;;;214.02;99.70;;;;;;;21.33;46.15;94155.31;6004516;23;20050;-92
2023/09/25 07:40:46;;;;;;;186.90;94.97;;;;;;;21.35;45.83;94169.28;6016255;23;20463;-93
2023/09/25 07:43:12;;;;;;;229.10;98.82;;;;;;;21.35;45.81;94164.53;6017805;23;20162;-91
2023/09/25 07:45:38;;;;;;;221.60;107.05;;;;;;;21.32;45.92;94162.81;6016569;23;20029;-94
2023/09/25 07:48:06;;;;;;;190.05;93.70;;;;;;;21.35;45.81;94169.28;6015797;23;20023;-94
2023/09/25 07:50:33;;;;;;;223.02;104.55;;;;;;;21.38;45.84;94168.28;6019131;23;20015;-94
2023/09/25 07:53:08;;;;;;;189.98;97.38;;;;;;;21.35;45.81;94170.03;6017514;23;20023;-92
2023/09/25 07:55:33;;;;;;;170.38;93.40;;;;;;;21.37;45.93;94167.53;5992971;23;20018;-92
2023/09/25 07:57:59;;;;;;;173.85;89.65;;;;;;;21.37;46.11;94175.03;6024927;23;20022;-93
2023/09/25 08:00:24;;;;;;;170.10;90.43;;;;;;;21.36;45.85;94179.78;6043941;23;20054;-92
2023/09/25 08:02:52;;;;;;;180.05;90.85;;;;;;;21.38;45.87;94176.53;6070315;23;20189;-92
2023/09/25 08:05:19;;;;;;;159.40;88.18;;;;;;;21.37;46.06;94173.03;6031379;23;20498;-92
2023/09/25 08:07:45;;;;;;;168.98;86.15;;;;;;;21.40;45.97;94179.50;6069260;23;20034;-93
2023/09/25 08:10:12;;;;;;;119.47;62.60;;;;;;;21.42;45.47;94172.25;6067878;23;20470;-93
2023/09/25 08:12:38;;;;;;;102.97;52.88;;;;;;;21.27;45.98;94171.09;6043389;23;20131;-93
2023/09/25 08:15:04;;;;;;;88.75;41.67;;;;;;;21.20;46.02;94177.91;6043345;23;20046;-94
2023/09/25 08:17:29;;;;;;;96.20;47.38;;;;;;;21.19;46.08;94177.13;6067264;23;20018;-93
2023/09/25 08:19:55;;;;;;;75.25;38.85;;;;;;;21.04;46.10;94173.97;6091705;23;20023;-93
2023/09/25 08:22:20;;;;;;;100.03;49.92;;;;;;;21.01;46.20;94172.25;6043929;23;20097;-92
2023/09/25 08:24:46;;;;;;;64.82;31.75;;;;;;;21.03;46.22;94174.47;6067153;23;20079;-93
2023/09/25 08:27:12;;;;;;;70.18;36.60;;;;;;;20.94;46.56;94166.56;6067202;23;20026;-93
2023/09/25 08:29:38;;;;;;;72.07;31.65;;;;;;;20.95;46.52;94168.81;6018470;23;20098;-92
2023/09/25 08:32:03;;;;;;;50.97;26.88;;;;;;;20.96;46.73;94169.53;6074779;23;20026;-93
2023/09/25 08:34:29;;;;;;;142.95;43.08;;;;;;;20.95;46.65;94174.28;6044962;23;20033;-94
2023/09/25 08:36:54;;;;;;;102.32;37.00;;;;;;;20.93;46.80;94168.56;6045240;23;20083;-92
2023/09/25 08:39:20;;;;;;;82.45;35.17;;;;;;;20.90;46.95;94172.31;6033505;23;20022;-94
2023/09/25 08:41:45;;;;;;;76.60;34.33;;;;;;;20.84;46.89;94169.59;6105482;23;20034;-92
2023/09/25 08:44:12;;;;;;;68.85;36.90;;;;;;;20.87;47.14;94185.06;6075736;23;20045;-93
2023/09/25 08:46:38;;;;;;;149.32;47.22;;;;;;;20.94;47.19;94177.56;6037485;23;20081;-93
2023/09/25 08:49:03;;;;;;;89.00;30.00;;;;;;;20.85;47.00;94173.84;6068698;23;20453;-92
2023/09/25 08:51:34;;;;;;;79.50;25.65;;;;;;;20.76;47.39;94171.41;6048156;23;20069;-94
2023/09/25 08:54:06;;;;;;;43.20;18.70;;;;;;;20.74;47.25;94170.41;6045754;23;20460;-93
2023/09/25 08:56:31;;;;;;;72.60;22.55;;;;;;;20.70;47.45;94161.69;6044775;23;20023;-93
2023/09/25 08:59:03;;;;;;;97.03;24.85;;;;;;;20.67;47.77;94165.44;6043287;23;20029;-93
2023/09/25 09:01:29;;;;;;;72.13;24.90;;;;;;;20.72;47.55;94167.44;6041828;23;20021;-95
2023/09/25 09:03:54;;;;;;;74.70;26.23;;;;;;;20.79;47.37;94164.88;6067182;23;20014;-94
2023/09/25 09:06:20;;;;;;;75.03;31.65;;;;;;;20.85;47.54;94159.34;6041340;23;20026;-93
2023/09/25 09:08:47;;;;;;;101.32;37.83;;;;;;;20.85;47.28;94162.09;6042317;23;20019;-93
2023/09/25 09:11:13;;;;;;;85.82;40.67;;;;;;;20.87;47.26;94157.59;6041738;23;20025;-94
2023/09/25 09:13:45;;;;;;;104.53;46.88;;;;;;;20.87;47.44;94152.09;6045022;23;20093;-92
2023/09/25 09:16:12;;;;;;;124.68;55.13;;;;;;;20.95;47.41;94162.56;6041223;23;20350;-93
2023/09/25 09:18:38;;;;;;;117.25;49.78;;;;;;;20.95;47.60;94157.06;6042553;23;20348;-92
2023/09/25 09:21:03;;;;;;;84.88;39.63;;;;;;;21.01;46.99;94166.00;6042208;23;20054;-93
2023/09/25 09:23:39;;;;;;;79.38;36.80;;;;;;;20.96;47.25;94161.31;6045010;23;20022;-92
2023/09/25 09:26:05;;;;;;;77.40;38.97;;;;;;;20.97;47.30;94160.78;6066988;23;20110;-92
2023/09/25 09:28:32;;;;;;;97.78;43.35;;;;;;;21.01;47.39;94157.75;6044359;23;20015;-93
2023/09/25 09:30:59;;;;;;;96.20;45.92;;;;;;;21.00;47.24;94151.50;6048555;23;20030;-92
2023/09/25 09:33:29;;;;;;;109.38;47.40;;;;;;;21.00;47.37;94150.78;6071650;23;20014;-93
2023/09/25 09:35:55;;;;;;;158.07;63.43;;;;;;;21.05;47.43;94149.97;6075250;23;20362;-92
2023/09/25 09:38:21;;;;;;;148.05;66.50;;;;;;;21.10;47.21;94157.44;6051811;23;20071;-92
2023/09/25 09:40:48;;;;;;;145.95;73.95;;;;;;;21.06;47.33;94152.22;6049413;23;20018;-91
2023/09/25 09:43:16;;;;;;;186.05;81.28;;;;;;;21.08;47.17;94146.22;6048536;23;20036;-93
2023/09/25 09:45:41;;;;;;;179.98;78.88;;;;;;;21.06;47.27;94141.22;6047542;23;20029;-92
2023/09/25 09:48:07;;;;;;;172.50;82.25;;;;;;;21.06;47.67;94146.72;6047068;23;20017;-92
2023/09/25 09:50:32;;;;;;;172.95;85.93;;;;;;;21.08;47.53;94141.47;6047984;23;20020;-93
2023/09/25 09:52:58;;;;;;;196.13;91.03;;;;;;;21.06;47.41;94145.97;6048924;23;20026;-93
2023/09/25 09:55:26;;;;;;;218.88;87.13;;;;;;;21.06;47.48;94146.72;6074348;23;20032;-93
2023/09/25 09:57:51;;;;;;;223.63;95.22;;;;;;;21.10;47.41;94138.19;6051430;23;20025;-93
2023/09/25 10:00:17;;;;;;;197.38;80.80;;;;;;;21.13;47.56;94132.44;6046987;23;20018;-92
2023/09/25 10:02:45;;;;;;;232.50;86.30;;;;;;;21.09;47.47;94142.94;6047691;23;20022;-92
2023/09/25 10:05:13;;;;;;;204.43;83.30;;;;;;;21.09;47.53;94129.22;6047641;23;20093;-92
2023/09/25 10:08:09;;;;;;;163.73;72.50;;;;;;;21.05;47.53;94128.72;6049717;23;20022;-92
2023/09/25 10:10:36;;;;;;;204.13;96.20;;;;;;;21.11;47.77;94131.44;6103171;23;20026;-93
2023/09/25 10:13:01;;;;;;;172.32;72.72;;;;;;;21.11;47.88;94131.44;6056289;23;20025;-91
2023/09/25 10:15:27;;;;;;;148.65;67.82;;;;;;;21.10;47.97;94132.69;6075717;23;20006;-92
2023/09/25 10:17:52;;;;;;;130.98;66.15;;;;;;;21.09;47.88;94125.72;6077997;23;20327;-92
2023/09/25 10:20:27;;;;;;;127.78;68.90;;;;;;;21.03;47.87;94139.50;6100414;23;20093;-90
2023/09/25 10:22:52;;;;;;;122.88;57.83;;;;;;;21.08;48.04;94129.72;6101758;23;20030;-94
2023/09/25 10:25:20;;;;;;;104.28;51.13;;;;;;;21.09;48.22;94136.72;6052146;23;20084;-92
2023/09/25 10:27:45;;;;;;;118.35;55.95;;;;;;;21.06;47.86;94132.22;6054488;23;20442;-93
2023/09/25 10:30:14;;;;;;;120.45;59.13;;;;;;;21.08;48.10;94133.22;6053214;23;20019;-93
2023/09/25 10:32:40;;;;;;;99.07;53.15;;;;;;;21.09;47.91;94118.22;6076056;23;20030;-92
2023/09/25 10:35:37;;;;;;;90.50;46.38;;;;;;;21.15;47.87;94120.94;6073027;23;20022;-93
2023/09/25 10:38:22;;;;;;;68.47;37.85;;;;;;;21.10;48.20;94116.22;6077741;23;20006;-92
2023/09/25 10:40:49;;;;;;;60.72;37.45;;;;;;;21.13;48.03;94112.44;6098048;23;20026;-94
2023/09/25 10:43:19;;;;;;;61.65;33.60;;;;;;;21.15;48.25;94118.19;6052006;23;20026;-91
2023/09/25 10:45:45;;;;;;;55.40;27.58;;;;;;;21.10;48.60;94116.22;6073566;23;20030;-92
2023/09/25 10:48:11;;;;;;;50.42;26.60;;;;;;;21.04;48.71;94110.00;6020937;23;20043;-92
2023/09/25 10:50:39;;;;;;;42.28;27.48;;;;;;;21.00;48.54;94117.78;6012409;23;20083;-92
2023/09/25 10:53:06;;;;;;;49.92;28.17;;;;;;;21.02;48.61;94120.75;5998751;23;20023;-92
2023/09/25 10:55:34;;;;;;;48.95;26.15;;;;;;;21.05;48.81;94115.00;5997029;23;20024;-93
2023/09/25 10:58:30;;;;;;;53.60;25.15;;;;;;;21.06;48.62;94119.22;5951285;23;20034;-92
2023/09/25 11:01:02;;;;;;;70.47;26.45;;;;;;;21.10;48.75;94105.97;6003562;23;20026;-92
2023/09/25 11:03:28;;;;;;;83.47;28.40;;;;;;;21.08;48.66;94108.47;5973533;23;20095;-92
2023/09/25 11:06:02;;;;;;;66.07;27.25;;;;;;;21.12;48.61;94102.69;5992796;23;20019;-92
2023/09/25 11:08:34;;;;;;;66.43;26.30;;;;;;;21.13;48.77;94101.44;5996004;23;20028;-93
2023/09/25 11:11:02;;;;;;;63.35;26.40;;;;;;;21.08;48.94;94100.22;5949965;23;20024;-92
2023/09/25 11:13:29;;;;;;;57.45;26.83;;;;;;;21.14;48.67;94097.44;5993211;23;20020;-93
2023/09/25 11:15:55;;;;;;;74.70;34.30;;;;;;;21.09;48.86;94096.22;5998086;23;20029;-93
2023/09/25 11:18:31;;;;;;;77.05;34.03;;;;;;;21.12;48.89;94100.69;6069361;23;20022;-93
2023/09/25 11:23:35;;;;;;;118.10;48.00;;;;;;;21.08;49.11;94093.97;6138606;23;20014;-94
2023/09/25 11:26:05;;;;;;;116.78;48.63;;;;;;;21.10;49.09;94092.22;6102832;23;20065;-92
2023/09/25 11:28:32;;;;;;;98.65;44.67;;;;;;;21.11;49.43;94092.97;6032258;23;20556;-92
2023/09/25 11:31:01;;;;;;;105.30;49.55;;;;;;;21.09;49.17;94098.22;6058858;23;20044;-95
2023/09/25 11:33:39;;;;;;;108.97;50.03;;;;;;;21.13;49.20;94084.94;6036174;23;20015;-92
2023/09/25 11:36:20;;;;;;;126.13;50.90;;;;;;;21.12;49.21;94086.94;6051385;23;20018;-94
2023/09/25 11:41:58;;;;;;;149.32;58.13;;;;;;;21.19;49.13;94094.66;6123434;23;20029;-93
2023/09/25 11:44:24;;;;;;;162.93;61.17;;;;;;;21.17;49.49;94088.16;6015880;23;20025;-92